Time;durP1;ratioP1;P1;durP2;ratioP2;P2;SDS_P1;SDS_P2;PMS_P1;PMS_P2;Temp;Humidity;BMP_temperature;BMP_pressure;BME280_temperature;BME280_humidity;BME280_pressure;Samples;Min_cycle;Max_cycle;Signal;HPM_P1;HPM_P2
2024/01/23 00:01:26;;;;;;;;;;;6.10;99.90;;;;;;5062189;28;20027;-70
2024/01/23 00:03:52;;;;;;;;;;;6.10;99.90;;;;;;5064152;28;19932;-69
2024/01/23 00:06:19;;;;;;;;;;;6.10;99.90;;;;;;5057776;28;19986;-71
2024/01/23 00:08:46;;;;;;;;;;;6.00;99.90;;;;;;5061485;28;19928;-70
2024/01/23 00:11:12;;;;;;;;;;;6.00;99.90;;;;;;5062761;28;20402;-71
2024/01/23 00:13:41;;;;;;;;;;;6.00;99.90;;;;;;5060226;28;19928;-71
2024/01/23 00:16:08;;;;;;;;;;;6.00;99.90;;;;;;5064647;28;19983;-70
2024/01/23 00:18:34;;;;;;;;;;;6.00;99.90;;;;;;5061930;28;19936;-71
2024/01/23 00:21:01;;;;;;;;;;;6.00;99.90;;;;;;5060456;28;19939;-69
2024/01/23 00:23:28;;;;;;;;;;;6.10;99.90;;;;;;5064461;28;19958;-70
2024/01/23 00:25:55;;;;;;;;;;;6.00;99.90;;;;;;5056635;28;19995;-70
2024/01/23 00:28:21;;;;;;;;;;;6.00;99.90;;;;;;5061216;28;19932;-70
2024/01/23 00:30:49;;;;;;;;;;;6.00;99.90;;;;;;5060550;28;19937;-70
2024/01/23 00:33:16;;;;;;;;;;;6.00;99.90;;;;;;5058574;28;20823;-69
2024/01/23 00:35:42;;;;;;;;;;;6.00;99.90;;;;;;5060142;28;19933;-70
2024/01/23 00:38:09;;;;;;;;;;;6.00;99.90;;;;;;5069367;28;19928;-70
2024/01/23 00:40:35;;;;;;;;;;;6.00;99.90;;;;;;5070812;28;20478;-71
2024/01/23 00:43:02;;;;;;;;;;;6.00;99.90;;;;;;5067578;28;19929;-70
2024/01/23 00:45:28;;;;;;;;;;;6.00;99.90;;;;;;5066843;28;19996;-70
2024/01/23 00:47:56;;;;;;;;;;;6.00;99.90;;;;;;5066822;28;19933;-69
2024/01/23 00:50:22;;;;;;;;;;;6.00;99.90;;;;;;5062673;28;20209;-70
2024/01/23 00:52:49;;;;;;;;;;;6.00;99.90;;;;;;5064573;28;19935;-70
2024/01/23 00:55:15;;;;;;;;;;;6.00;99.90;;;;;;5062750;28;19932;-70
2024/01/23 00:57:42;;;;;;;;;;;6.00;99.90;;;;;;5063578;28;20464;-72
2024/01/23 01:00:09;;;;;;;;;;;6.00;99.90;;;;;;5065611;28;19990;-70
2024/01/23 01:02:36;;;;;;;;;;;6.00;99.90;;;;;;5065823;28;19936;-70
2024/01/23 01:05:04;;;;;;;;;;;6.00;99.90;;;;;;5065199;28;19932;-69
2024/01/23 01:07:31;;;;;;;;;;;6.00;99.90;;;;;;5065243;28;19979;-71
2024/01/23 01:09:58;;;;;;;;;;;6.00;99.90;;;;;;5063700;28;19928;-70
2024/01/23 01:12:24;;;;;;;;;;;6.00;99.90;;;;;;5065007;28;19986;-70
2024/01/23 01:14:51;;;;;;;;;;;6.00;99.90;;;;;;5063423;28;20352;-70
2024/01/23 01:17:17;;;;;;;;;;;6.00;99.90;;;;;;5064977;28;19932;-71
2024/01/23 01:19:44;;;;;;;;;;;6.00;99.90;;;;;;5065763;28;20368;-70
2024/01/23 01:22:11;;;;;;;;;;;6.00;99.90;;;;;;5066659;28;19982;-71
2024/01/23 01:24:38;;;;;;;;;;;6.00;99.90;;;;;;5062424;28;20002;-70
2024/01/23 01:27:05;;;;;;;;;;;6.00;99.90;;;;;;5060926;28;19933;-71
2024/01/23 01:29:31;;;;;;;;;;;6.00;99.90;;;;;;5060837;28;19928;-70
2024/01/23 01:31:58;;;;;;;;;;;6.00;99.90;;;;;;5062470;28;19994;-70
2024/01/23 01:34:24;;;;;;;;;;;6.00;99.90;;;;;;5062713;28;19932;-70
2024/01/23 01:36:51;;;;;;;;;;;6.00;99.90;;;;;;5062874;28;19932;-71
2024/01/23 01:39:19;;;;;;;;;;;6.00;99.90;;;;;;5064981;28;20283;-69
2024/01/23 01:41:51;;;;;;;;;;;6.00;99.90;;;;;;5065788;28;20473;-70
2024/01/23 01:44:18;;;;;;;;;;;6.00;99.90;;;;;;5062879;28;20561;-70
2024/01/23 01:46:44;;;;;;;;;;;6.00;99.90;;;;;;5062152;28;19974;-70
2024/01/23 01:49:11;;;;;;;;;;;6.00;99.90;;;;;;5062760;28;20011;-69
2024/01/23 01:51:38;;;;;;;;;;;6.00;99.90;;;;;;5061352;28;19978;-70
2024/01/23 01:54:05;;;;;;;;;;;6.00;99.90;;;;;;5064646;28;20189;-70
2024/01/23 01:56:33;;;;;;;;;;;6.00;99.90;;;;;;5062477;28;19928;-71
2024/01/23 01:58:59;;;;;;;;;;;6.00;99.90;;;;;;5064636;28;19936;-69
2024/01/23 02:01:26;;;;;;;;;;;6.00;99.90;;;;;;5061456;28;20360;-70
2024/01/23 02:03:53;;;;;;;;;;;5.90;99.90;;;;;;5063696;28;19932;-69
2024/01/23 02:06:19;;;;;;;;;;;6.00;99.90;;;;;;5063351;28;19978;-69
2024/01/23 02:08:47;;;;;;;;;;;5.90;99.90;;;;;;5064557;28;19929;-70
2024/01/23 02:11:14;;;;;;;;;;;5.90;99.90;;;;;;5065765;28;19990;-70
2024/01/23 02:13:41;;;;;;;;;;;5.90;99.90;;;;;;5065722;28;19936;-70
2024/01/23 02:16:08;;;;;;;;;;;5.90;99.90;;;;;;5063757;28;19928;-69
2024/01/23 02:18:35;;;;;;;;;;;5.90;99.90;;;;;;5062124;28;19935;-70
2024/01/23 02:21:01;;;;;;;;;;;5.90;99.90;;;;;;5063562;28;19928;-70
2024/01/23 02:23:30;;;;;;;;;;;5.90;99.90;;;;;;5065186;28;20352;-71
2024/01/23 02:25:55;;;;;;;;;;;5.90;99.90;;;;;;5058689;28;20722;-69
2024/01/23 02:28:22;;;;;;;;;;;5.90;99.90;;;;;;5067076;28;19928;-69
2024/01/23 02:30:48;;;;;;;;;;;5.90;99.90;;;;;;5066479;28;19985;-71
2024/01/23 02:33:15;;;;;;;;;;;5.90;99.90;;;;;;5061376;28;19989;-69
2024/01/23 02:35:42;;;;;;;;;;;5.90;99.90;;;;;;5063838;28;19929;-70
2024/01/23 02:38:08;;;;;;;;;;;5.90;99.90;;;;;;5060322;28;20212;-69
2024/01/23 02:40:36;;;;;;;;;;;5.90;99.90;;;;;;5066578;28;19935;-70
2024/01/23 02:43:03;;;;;;;;;;;5.90;99.90;;;;;;5060275;28;19932;-71
2024/01/23 02:45:30;;;;;;;;;;;5.90;99.90;;;;;;5060581;28;20039;-70
2024/01/23 02:47:56;;;;;;;;;;;5.80;99.90;;;;;;5061992;28;20320;-70
2024/01/23 02:50:23;;;;;;;;;;;5.90;99.90;;;;;;5062016;28;19928;-70
2024/01/23 02:52:49;;;;;;;;;;;5.80;99.90;;;;;;5063506;28;19936;-70
2024/01/23 02:55:16;;;;;;;;;;;5.80;99.90;;;;;;5059004;28;19962;-70
2024/01/23 02:57:44;;;;;;;;;;;5.90;99.90;;;;;;5059975;28;19924;-69
2024/01/23 03:00:11;;;;;;;;;;;5.80;99.90;;;;;;5064591;28;19982;-70
2024/01/23 03:02:37;;;;;;;;;;;5.80;99.90;;;;;;5060590;28;20426;-69
2024/01/23 03:05:04;;;;;;;;;;;5.90;99.90;;;;;;5058789;28;19928;-71
2024/01/23 03:07:31;;;;;;;;;;;5.80;99.90;;;;;;5061839;28;19933;-69
2024/01/23 03:09:57;;;;;;;;;;;5.80;99.90;;;;;;5063961;28;20383;-70
2024/01/23 03:12:24;;;;;;;;;;;5.80;99.90;;;;;;5062702;28;19989;-70
2024/01/23 03:14:51;;;;;;;;;;;5.80;99.90;;;;;;5066457;28;20012;-70
2024/01/23 03:17:18;;;;;;;;;;;5.80;99.90;;;;;;5060658;28;19928;-69
2024/01/23 03:19:45;;;;;;;;;;;5.80;99.90;;;;;;5067476;28;19932;-70
2024/01/23 03:22:12;;;;;;;;;;;5.80;99.90;;;;;;5064615;28;19932;-71
2024/01/23 03:24:39;;;;;;;;;;;5.80;99.90;;;;;;5066527;28;20455;-70
2024/01/23 03:27:06;;;;;;;;;;;5.80;99.90;;;;;;5061952;28;20073;-70
2024/01/23 03:29:38;;;;;;;;;;;5.80;99.90;;;;;;5062898;28;19934;-71
2024/01/23 03:32:06;;;;;;;;;;;5.80;99.90;;;;;;5062222;28;20473;-70
2024/01/23 03:34:33;;;;;;;;;;;5.80;99.90;;;;;;5059822;28;20788;-70
2024/01/23 03:37:01;;;;;;;;;;;5.80;99.90;;;;;;5058255;28;19936;-70
2024/01/23 03:39:27;;;;;;;;;;;5.80;99.90;;;;;;5058040;28;19987;-70
2024/01/23 03:41:54;;;;;;;;;;;5.80;99.90;;;;;;5062133;28;19933;-71
2024/01/23 03:44:21;;;;;;;;;;;5.80;99.90;;;;;;5064418;28;19932;-70
2024/01/23 03:46:47;;;;;;;;;;;5.80;99.90;;;;;;5060987;28;19933;-70
2024/01/23 03:49:15;;;;;;;;;;;5.80;99.90;;;;;;5058916;28;20360;-70
2024/01/23 03:51:41;;;;;;;;;;;5.80;99.90;;;;;;5063498;28;19933;-70
2024/01/23 03:54:08;;;;;;;;;;;5.80;99.90;;;;;;5064484;28;20014;-70
2024/01/23 03:56:34;;;;;;;;;;;5.80;99.90;;;;;;5062098;28;19939;-70
2024/01/23 03:59:01;;;;;;;;;;;5.80;99.90;;;;;;5059237;28;19932;-69
2024/01/23 04:01:27;;;;;;;;;;;5.80;99.90;;;;;;5065363;28;19928;-70
2024/01/23 04:03:54;;;;;;;;;;;5.80;99.90;;;;;;5062554;28;19947;-69
2024/01/23 04:06:22;;;;;;;;;;;5.80;99.90;;;;;;5058679;28;20091;-70
2024/01/23 04:08:49;;;;;;;;;;;5.80;99.90;;;;;;5060366;28;19928;-69
2024/01/23 04:11:15;;;;;;;;;;;5.80;99.90;;;;;;5061461;28;19928;-69
2024/01/23 04:13:42;;;;;;;;;;;5.80;99.90;;;;;;5060171;28;20425;-68
2024/01/23 04:16:09;;;;;;;;;;;5.80;99.90;;;;;;5055766;28;19936;-69
2024/01/23 04:18:36;;;;;;;;;;;5.80;99.90;;;;;;5062695;28;19940;-69
2024/01/23 04:21:02;;;;;;;;;;;5.80;99.90;;;;;;5061689;28;20014;-69
2024/01/23 04:23:30;;;;;;;;;;;5.80;99.90;;;;;;5064472;28;20403;-69
2024/01/23 04:25:57;;;;;;;;;;;5.80;99.90;;;;;;5055723;28;19932;-69
2024/01/23 04:28:23;;;;;;;;;;;5.80;99.90;;;;;;5059454;28;19944;-69
2024/01/23 04:30:52;;;;;;;;;;;5.80;99.90;;;;;;5065460;28;20009;-69
2024/01/23 04:33:19;;;;;;;;;;;5.80;99.90;;;;;;5060575;28;19939;-69
2024/01/23 04:35:45;;;;;;;;;;;5.80;99.90;;;;;;5063594;28;19928;-70
2024/01/23 04:38:12;;;;;;;;;;;5.80;99.90;;;;;;5061739;28;20024;-70
2024/01/23 04:40:40;;;;;;;;;;;5.80;99.90;;;;;;5062379;28;19928;-70
2024/01/23 04:43:06;;;;;;;;;;;5.80;99.90;;;;;;5058124;28;20663;-69
2024/01/23 04:45:33;;;;;;;;;;;5.80;99.90;;;;;;5058718;28;19932;-70
2024/01/23 04:47:59;;;;;;;;;;;5.80;99.90;;;;;;5060503;28;19932;-69
2024/01/23 04:50:26;;;;;;;;;;;5.80;99.90;;;;;;5061810;28;19939;-68
2024/01/23 04:52:56;;;;;;;;;;;5.80;99.90;;;;;;5061062;28;19986;-69
2024/01/23 04:55:23;;;;;;;;;;;5.80;99.90;;;;;;5064623;28;21054;-69
2024/01/23 04:57:51;;;;;;;;;;;5.80;99.90;;;;;;5061327;28;20305;-70
2024/01/23 05:00:18;;;;;;;;;;;5.80;99.90;;;;;;5061611;28;19929;-69
2024/01/23 05:02:44;;;;;;;;;;;5.80;99.90;;;;;;5058099;28;19932;-71
2024/01/23 05:05:11;;;;;;;;;;;5.80;99.90;;;;;;5060536;28;19929;-69
2024/01/23 05:07:37;;;;;;;;;;;5.80;99.90;;;;;;5062264;28;19924;-69
2024/01/23 05:10:05;;;;;;;;;;;5.80;99.90;;;;;;5061570;28;19935;-70
2024/01/23 05:12:31;;;;;;;;;;;5.70;99.90;;;;;;5061995;28;19928;-69
2024/01/23 05:14:59;;;;;;;;;;;5.70;99.90;;;;;;5059605;28;20002;-69
2024/01/23 05:17:26;;;;;;;;;;;5.70;99.90;;;;;;5061477;28;20296;-69
2024/01/23 05:19:52;;;;;;;;;;;5.70;99.90;;;;;;5059771;28;19936;-68
2024/01/23 05:22:19;;;;;;;;;;;5.70;99.90;;;;;;5062865;28;19952;-68
2024/01/23 05:24:45;;;;;;;;;;;5.70;99.90;;;;;;5065951;28;20420;-69
2024/01/23 05:27:12;;;;;;;;;;;5.70;99.90;;;;;;5061938;28;19932;-69
2024/01/23 05:29:38;;;;;;;;;;;5.70;99.90;;;;;;5069299;28;19932;-70
2024/01/23 05:32:06;;;;;;;;;;;5.70;99.90;;;;;;5061666;28;19941;-69
2024/01/23 05:34:34;;;;;;;;;;;5.70;99.90;;;;;;5063677;28;19974;-69
2024/01/23 05:37:00;;;;;;;;;;;5.70;99.90;;;;;;5064324;28;19990;-70
2024/01/23 05:39:29;;;;;;;;;;;5.70;99.90;;;;;;5065081;28;19933;-68
2024/01/23 05:41:55;;;;;;;;;;;5.70;99.90;;;;;;5067299;28;19940;-70
2024/01/23 05:44:22;;;;;;;;;;;5.70;99.90;;;;;;5062113;28;19928;-69
2024/01/23 05:46:48;;;;;;;;;;;5.70;99.90;;;;;;5064931;28;20390;-68
2024/01/23 05:49:16;;;;;;;;;;;5.70;99.90;;;;;;5065320;28;19925;-69
2024/01/23 05:51:43;;;;;;;;;;;5.70;99.90;;;;;;5064043;28;19932;-69
2024/01/23 05:54:10;;;;;;;;;;;5.70;99.90;;;;;;5062566;28;19981;-70
2024/01/23 05:56:36;;;;;;;;;;;5.70;99.90;;;;;;5065073;28;20055;-70
2024/01/23 05:59:03;;;;;;;;;;;5.60;99.90;;;;;;5064072;28;19981;-69
2024/01/23 06:01:32;;;;;;;;;;;5.70;99.90;;;;;;5059728;28;19925;-69
2024/01/23 06:03:58;;;;;;;;;;;5.60;99.90;;;;;;5063844;28;19933;-69
2024/01/23 06:06:26;;;;;;;;;;;5.60;99.90;;;;;;5062681;28;19961;-69
2024/01/23 06:08:53;;;;;;;;;;;5.60;99.90;;;;;;5063628;28;19932;-69
2024/01/23 06:11:20;;;;;;;;;;;5.60;99.90;;;;;;5063525;28;20336;-69
2024/01/23 06:13:46;;;;;;;;;;;5.60;99.90;;;;;;5062195;28;20394;-69
2024/01/23 06:16:13;;;;;;;;;;;5.60;99.90;;;;;;5064621;28;19928;-69
2024/01/23 06:18:39;;;;;;;;;;;5.60;99.90;;;;;;5063939;28;19932;-70
2024/01/23 06:21:06;;;;;;;;;;;5.50;99.90;;;;;;5063282;28;19928;-70
2024/01/23 06:23:34;;;;;;;;;;;5.60;99.90;;;;;;5062557;28;19929;-70
2024/01/23 06:26:01;;;;;;;;;;;5.60;99.90;;;;;;5061712;28;20677;-69
2024/01/23 06:28:27;;;;;;;;;;;5.60;99.90;;;;;;5064253;28;20529;-69
2024/01/23 06:30:54;;;;;;;;;;;5.50;99.90;;;;;;5064563;28;19936;-69
2024/01/23 06:33:21;;;;;;;;;;;5.50;99.90;;;;;;5062078;28;20047;-69
2024/01/23 06:35:47;;;;;;;;;;;5.50;99.90;;;;;;5061032;28;19939;-70
2024/01/23 06:38:14;;;;;;;;;;;5.50;99.90;;;;;;5062753;28;19997;-69
2024/01/23 06:40:41;;;;;;;;;;;5.50;99.90;;;;;;5064696;28;19928;-69
2024/01/23 06:43:08;;;;;;;;;;;5.50;99.90;;;;;;5062993;28;19928;-73
2024/01/23 06:45:34;;;;;;;;;;;5.50;99.90;;;;;;5063376;28;19932;-73
2024/01/23 06:48:01;;;;;;;;;;;5.50;99.90;;;;;;5060572;28;20034;-71
2024/01/23 06:50:29;;;;;;;;;;;5.50;99.90;;;;;;5063223;28;20510;-72
2024/01/23 06:52:55;;;;;;;;;;;5.40;99.90;;;;;;5061517;28;19994;-72
2024/01/23 06:55:22;;;;;;;;;;;5.40;99.90;;;;;;5061838;28;19996;-73
2024/01/23 06:57:49;;;;;;;;;;;5.50;99.90;;;;;;5063279;28;19980;-76
2024/01/23 07:00:16;;;;;;;;;;;5.40;99.90;;;;;;5060562;28;19976;-71
2024/01/23 07:02:43;;;;;;;;;;;5.40;99.90;;;;;;5062143;28;20049;-71
2024/01/23 07:05:10;;;;;;;;;;;5.40;99.90;;;;;;5064340;28;20317;-71
2024/01/23 07:07:36;;;;;;;;;;;5.40;99.90;;;;;;5063487;28;19981;-71
2024/01/23 07:10:04;;;;;;;;;;;5.40;99.90;;;;;;5062673;28;19977;-72
2024/01/23 07:12:31;;;;;;;;;;;5.40;99.90;;;;;;5063677;28;20003;-72
2024/01/23 07:14:59;;;;;;;;;;;5.40;99.90;;;;;;5063053;28;19992;-72
2024/01/23 07:17:26;;;;;;;;;;;5.30;99.90;;;;;;5063292;28;20008;-71
2024/01/23 07:19:52;;;;;;;;;;;5.30;99.90;;;;;;5062003;28;19976;-73
2024/01/23 07:22:19;;;;;;;;;;;5.30;99.90;;;;;;5064231;28;19989;-70
2024/01/23 07:24:45;;;;;;;;;;;5.30;99.90;;;;;;5060908;28;19980;-72
2024/01/23 07:27:12;;;;;;;;;;;5.30;99.90;;;;;;5063079;28;20751;-71
2024/01/23 07:29:39;;;;;;;;;;;5.30;99.90;;;;;;5062625;28;20023;-71
2024/01/23 07:32:07;;;;;;;;;;;5.20;99.90;;;;;;5059229;28;20007;-73
2024/01/23 07:34:33;;;;;;;;;;;5.20;99.90;;;;;;5063494;28;19984;-72
2024/01/23 07:37:00;;;;;;;;;;;5.30;99.90;;;;;;5057540;28;20000;-72
2024/01/23 07:39:28;;;;;;;;;;;5.30;99.90;;;;;;5061712;28;20000;-71
2024/01/23 07:41:55;;;;;;;;;;;5.30;99.90;;;;;;5063167;28;20365;-71
2024/01/23 07:44:21;;;;;;;;;;;5.30;99.90;;;;;;5058289;28;20458;-72
2024/01/23 07:46:48;;;;;;;;;;;5.40;99.90;;;;;;5059344;28;20465;-72
2024/01/23 07:49:16;;;;;;;;;;;5.50;99.90;;;;;;5062010;28;20387;-72
2024/01/23 07:51:46;;;;;;;;;;;5.50;99.90;;;;;;5059983;28;19976;-72
2024/01/23 07:54:13;;;;;;;;;;;5.60;99.90;;;;;;5064176;28;20030;-71
2024/01/23 07:56:39;;;;;;;;;;;5.60;99.90;;;;;;5062311;28;19996;-72
2024/01/23 07:59:06;;;;;;;;;;;5.60;99.90;;;;;;5062408;28;20483;-72
2024/01/23 08:01:32;;;;;;;;;;;5.60;99.90;;;;;;5061958;28;20042;-71
2024/01/23 08:03:59;;;;;;;;;;;5.70;99.90;;;;;;5061370;28;20295;-71
2024/01/23 08:06:27;;;;;;;;;;;5.70;99.90;;;;;;5059683;28;19993;-72
2024/01/23 08:08:53;;;;;;;;;;;5.70;99.90;;;;;;5060268;28;19980;-72
2024/01/23 08:11:20;;;;;;;;;;;5.70;99.90;;;;;;5063409;28;20022;-71
2024/01/23 08:13:46;;;;;;;;;;;5.70;99.90;;;;;;5061699;28;19983;-71
2024/01/23 08:16:14;;;;;;;;;;;5.80;99.90;;;;;;5061273;28;20065;-71
2024/01/23 08:18:40;;;;;;;;;;;5.80;99.90;;;;;;5058007;28;20511;-71
2024/01/23 08:21:07;;;;;;;;;;;5.80;99.90;;;;;;5064357;28;20526;-71
2024/01/23 08:23:35;;;;;;;;;;;5.80;99.90;;;;;;5060774;28;19996;-71
2024/01/23 08:26:03;;;;;;;;;;;5.80;99.90;;;;;;5058143;28;20066;-70
2024/01/23 08:28:29;;;;;;;;;;;5.80;99.90;;;;;;5062005;28;20495;-71
2024/01/23 08:30:57;;;;;;;;;;;5.80;99.90;;;;;;5062003;28;20004;-72
2024/01/23 08:33:23;;;;;;;;;;;5.90;99.90;;;;;;5057083;28;20063;-71
2024/01/23 08:35:50;;;;;;;;;;;5.80;99.90;;;;;;5060774;28;19992;-71
2024/01/23 08:38:16;;;;;;;;;;;5.80;99.90;;;;;;5061327;28;19987;-71
2024/01/23 08:40:45;;;;;;;;;;;5.80;99.90;;;;;;5064438;28;19981;-72
2024/01/23 08:43:11;;;;;;;;;;;5.90;99.90;;;;;;5061050;28;20046;-71
2024/01/23 08:45:38;;;;;;;;;;;5.90;99.90;;;;;;5064348;28;20000;-71
2024/01/23 08:48:05;;;;;;;;;;;5.90;99.90;;;;;;5058643;28;20011;-73
2024/01/23 08:50:31;;;;;;;;;;;5.90;99.90;;;;;;5061279;28;20446;-71
2024/01/23 08:52:58;;;;;;;;;;;5.90;99.90;;;;;;5059563;28;19984;-71
2024/01/23 08:55:24;;;;;;;;;;;5.90;99.90;;;;;;5060819;28;19992;-71
2024/01/23 08:57:52;;;;;;;;;;;5.90;99.90;;;;;;5065930;28;20424;-72
2024/01/23 09:00:19;;;;;;;;;;;5.90;99.90;;;;;;5065701;28;19985;-71
2024/01/23 09:02:46;;;;;;;;;;;5.90;99.90;;;;;;5064447;28;19989;-72
2024/01/23 09:05:12;;;;;;;;;;;5.90;99.90;;;;;;5062624;28;19984;-71
2024/01/23 09:07:39;;;;;;;;;;;5.90;99.90;;;;;;5064088;28;19980;-71
2024/01/23 09:10:06;;;;;;;;;;;6.00;99.90;;;;;;5065055;28;19988;-72
2024/01/23 09:12:33;;;;;;;;;;;5.90;99.90;;;;;;5065046;28;20491;-71
2024/01/23 09:15:01;;;;;;;;;;;5.90;99.90;;;;;;5062933;28;19980;-71
2024/01/23 09:17:28;;;;;;;;;;;6.00;99.90;;;;;;5064577;28;20079;-72
2024/01/23 09:19:54;;;;;;;;;;;5.90;99.90;;;;;;5064763;28;20430;-71
2024/01/23 09:22:21;;;;;;;;;;;6.00;99.90;;;;;;5065023;28;19993;-71
2024/01/23 09:24:47;;;;;;;;;;;6.00;99.90;;;;;;5060256;28;19984;-71
2024/01/23 09:27:14;;;;;;;;;;;6.00;99.90;;;;;;5061650;28;19996;-71
2024/01/23 09:29:42;;;;;;;;;;;6.00;99.90;;;;;;5065342;28;20046;-72
2024/01/23 09:32:09;;;;;;;;;;;6.00;99.90;;;;;;5063990;28;20527;-72
2024/01/23 09:34:37;;;;;;;;;;;6.00;99.90;;;;;;5064376;28;19977;-72
2024/01/23 09:37:03;;;;;;;;;;;6.00;99.90;;;;;;5062083;28;20065;-72
2024/01/23 09:39:30;;;;;;;;;;;6.00;99.90;;;;;;5064741;28;20002;-72
2024/01/23 09:42:00;;;;;;;;;;;6.00;99.90;;;;;;5064237;28;19985;-71
2024/01/23 09:44:27;;;;;;;;;;;6.00;99.90;;;;;;5062356;28;19988;-71
2024/01/23 09:46:54;;;;;;;;;;;6.00;99.90;;;;;;5063675;28;20008;-71
2024/01/23 09:49:22;;;;;;;;;;;6.00;99.90;;;;;;5062709;28;19981;-71
2024/01/23 09:51:50;;;;;;;;;;;6.00;99.90;;;;;;5063082;28;20018;-71
2024/01/23 09:54:16;;;;;;;;;;;6.00;99.90;;;;;;5062845;28;19988;-72
2024/01/23 09:56:43;;;;;;;;;;;6.10;99.90;;;;;;5063478;28;19993;-72
2024/01/23 09:59:10;;;;;;;;;;;6.10;99.90;;;;;;5063900;28;20388;-71
2024/01/23 10:01:36;;;;;;;;;;;6.10;99.90;;;;;;5062798;28;20130;-73
2024/01/23 10:04:04;;;;;;;;;;;6.10;99.90;;;;;;5059703;28;20030;-71
2024/01/23 10:06:32;;;;;;;;;;;6.10;99.90;;;;;;5063028;28;19998;-71
2024/01/23 10:08:58;;;;;;;;;;;6.10;99.90;;;;;;5064096;28;20194;-72
2024/01/23 10:11:27;;;;;;;;;;;6.10;99.90;;;;;;5064277;28;20050;-71
2024/01/23 10:13:56;;;;;;;;;;;6.20;99.90;;;;;;5060840;28;19980;-70
2024/01/23 10:16:23;;;;;;;;;;;6.20;99.90;;;;;;5063638;28;20071;-72
2024/01/23 10:18:50;;;;;;;;;;;6.20;99.90;;;;;;5063160;28;19987;-71
2024/01/23 10:21:19;;;;;;;;;;;6.20;99.90;;;;;;5063270;28;20412;-71
2024/01/23 10:23:48;;;;;;;;;;;6.30;99.90;;;;;;5062803;28;19996;-71
2024/01/23 10:26:15;;;;;;;;;;;6.30;99.90;;;;;;5062120;28;20505;-71
2024/01/23 10:28:42;;;;;;;;;;;6.30;99.90;;;;;;5065045;28;19977;-72
2024/01/23 10:31:09;;;;;;;;;;;6.40;99.90;;;;;;5061919;28;19996;-71
2024/01/23 10:33:36;;;;;;;;;;;6.40;99.90;;;;;;5065001;28;19983;-71
2024/01/23 10:36:05;;;;;;;;;;;6.40;99.90;;;;;;5062112;28;19997;-71
2024/01/23 10:38:31;;;;;;;;;;;6.40;99.90;;;;;;5064838;28;20465;-71
2024/01/23 10:41:00;;;;;;;;;;;6.40;99.90;;;;;;5061671;28;20042;-71
2024/01/23 10:43:27;;;;;;;;;;;6.40;99.90;;;;;;5061415;28;20046;-70
2024/01/23 10:45:54;;;;;;;;;;;6.40;99.90;;;;;;5061198;28;20146;-71
2024/01/23 10:48:21;;;;;;;;;;;6.40;99.90;;;;;;5063066;28;20063;-71
2024/01/23 10:50:49;;;;;;;;;;;6.40;99.90;;;;;;5060797;28;19976;-72
2024/01/23 10:53:17;;;;;;;;;;;6.40;99.90;;;;;;5060439;28;19977;-72
2024/01/23 10:55:44;;;;;;;;;;;6.40;99.90;;;;;;5059721;28;19996;-72
2024/01/23 10:58:18;;;;;;;;;;;6.50;99.90;;;;;;5063204;28;20509;-71
2024/01/23 11:00:46;;;;;;;;;;;6.50;99.90;;;;;;5058600;28;19992;-71
2024/01/23 11:03:13;;;;;;;;;;;6.50;99.90;;;;;;5057964;28;20003;-72
2024/01/23 11:05:42;;;;;;;;;;;6.60;99.90;;;;;;5059761;28;19996;-72
2024/01/23 11:08:16;;;;;;;;;;;6.60;99.90;;;;;;5063840;28;19983;-72
2024/01/23 11:10:46;;;;;;;;;;;6.60;99.90;;;;;;5063690;28;20441;-72
2024/01/23 11:13:17;;;;;;;;;;;6.60;99.90;;;;;;5061722;28;19984;-72
2024/01/23 11:15:44;;;;;;;;;;;6.70;99.90;;;;;;5062640;28;19990;-72
2024/01/23 11:18:25;;;;;;;;;;;6.70;99.90;;;;;;5064853;28;20490;-72
2024/01/23 11:21:14;;;;;;;;;;;6.80;99.90;;;;;;5061030;28;19979;-71
2024/01/23 11:23:41;;;;;;;;;;;6.80;99.90;;;;;;5064447;28;20045;-72
2024/01/23 11:26:14;;;;;;;;;;;6.80;99.90;;;;;;5061210;28;19999;-72
2024/01/23 11:28:43;;;;;;;;;;;6.90;99.90;;;;;;5061466;28;20085;-72
2024/01/23 11:31:13;;;;;;;;;;;6.90;99.90;;;;;;5061621;28;19995;-72
2024/01/23 11:33:39;;;;;;;;;;;6.90;99.90;;;;;;5061938;28;20041;-71
2024/01/23 11:36:10;;;;;;;;;;;6.90;99.90;;;;;;5062307;28;20003;-72
2024/01/23 11:38:43;;;;;;;;;;;6.90;99.90;;;;;;5062261;28;19976;-72
2024/01/23 11:41:21;;;;;;;;;;;7.00;99.90;;;;;;5062032;28;20062;-71
2024/01/23 11:43:50;;;;;;;;;;;7.00;99.90;;;;;;5059960;28;20438;-71
2024/01/23 11:46:19;;;;;;;;;;;7.00;99.90;;;;;;5060773;28;20001;-71
2024/01/23 11:48:47;;;;;;;;;;;7.00;99.90;;;;;;5060801;28;20018;-72
2024/01/23 11:51:14;;;;;;;;;;;7.00;99.90;;;;;;5061866;28;19986;-71
2024/01/23 11:53:41;;;;;;;;;;;7.10;99.90;;;;;;5061728;28;19979;-72
2024/01/23 11:56:08;;;;;;;;;;;7.10;99.90;;;;;;5063309;28;19995;-72
2024/01/23 11:58:36;;;;;;;;;;;7.10;99.90;;;;;;5061220;28;21341;-72
2024/01/23 12:01:05;;;;;;;;;;;7.20;99.90;;;;;;5061688;28;19992;-71
2024/01/23 12:03:31;;;;;;;;;;;7.20;99.90;;;;;;5062026;28;19995;-72
2024/01/23 12:05:58;;;;;;;;;;;7.30;99.90;;;;;;5059612;28;20002;-71
2024/01/23 12:08:25;;;;;;;;;;;7.30;99.90;;;;;;5060308;28;19979;-72
2024/01/23 12:10:51;;;;;;;;;;;7.30;99.90;;;;;;5065548;28;19986;-71
2024/01/23 12:13:18;;;;;;;;;;;7.40;99.90;;;;;;5060287;28;20053;-71
2024/01/23 12:15:45;;;;;;;;;;;7.40;99.90;;;;;;5057625;28;19999;-72
2024/01/23 12:18:14;;;;;;;;;;;7.40;99.90;;;;;;5058711;28;19979;-71
2024/01/23 12:20:42;;;;;;;;;;;7.50;99.90;;;;;;5061249;28;20711;-71
2024/01/23 12:23:09;;;;;;;;;;;7.40;99.90;;;;;;5058911;28;20070;-72
2024/01/23 12:25:35;;;;;;;;;;;7.50;99.90;;;;;;5059786;28;19995;-71
2024/01/23 12:28:02;;;;;;;;;;;7.50;99.90;;;;;;5059974;28;20396;-71
2024/01/23 12:30:29;;;;;;;;;;;7.50;99.90;;;;;;5060501;28;19999;-72
2024/01/23 12:32:56;;;;;;;;;;;7.50;99.90;;;;;;5060454;28;20749;-71
2024/01/23 12:35:24;;;;;;;;;;;7.60;99.90;;;;;;5059781;28;19996;-71
2024/01/23 12:37:51;;;;;;;;;;;7.50;99.90;;;;;;5061571;28;19982;-72
2024/01/23 12:40:18;;;;;;;;;;;7.50;99.90;;;;;;5060767;28;19990;-71
2024/01/23 12:42:46;;;;;;;;;;;7.50;99.90;;;;;;5059840;28;20059;-72
2024/01/23 12:45:13;;;;;;;;;;;7.60;99.90;;;;;;5058347;28;21032;-71
2024/01/23 12:47:41;;;;;;;;;;;7.60;99.90;;;;;;5058241;28;20031;-72
2024/01/23 12:50:14;;;;;;;;;;;7.50;99.90;;;;;;5060507;28;20574;-71
2024/01/23 12:52:42;;;;;;;;;;;7.50;99.90;;;;;;5063637;28;19991;-71
2024/01/23 12:55:09;;;;;;;;;;;7.50;99.90;;;;;;5059792;28;20033;-72
2024/01/23 12:57:35;;;;;;;;;;;7.50;99.90;;;;;;5062563;28;20063;-71
2024/01/23 13:00:04;;;;;;;;;;;7.50;99.90;;;;;;5060321;28;19979;-70
2024/01/23 13:02:30;;;;;;;;;;;7.50;99.90;;;;;;5038680;28;19998;-71
2024/01/23 13:04:57;;;;;;;;;;;7.50;99.90;;;;;;5038739;28;20017;-70
2024/01/23 13:07:23;;;;;;;;;;;7.50;99.90;;;;;;5040994;28;20460;-70
2024/01/23 13:09:51;;;;;;;;;;;7.50;99.90;;;;;;5042238;28;19980;-70
2024/01/23 13:12:18;;;;;;;;;;;7.50;99.90;;;;;;5039977;28;19975;-70
2024/01/23 13:14:45;;;;;;;;;;;7.50;99.90;;;;;;5040100;28;19979;-71
2024/01/23 13:17:11;;;;;;;;;;;7.50;99.90;;;;;;5036210;28;20460;-69
2024/01/23 13:19:38;;;;;;;;;;;7.50;99.90;;;;;;5041027;28;19979;-72
2024/01/23 13:22:06;;;;;;;;;;;7.40;99.90;;;;;;5035024;28;19976;-71
2024/01/23 13:24:32;;;;;;;;;;;7.50;99.90;;;;;;5032500;28;19992;-70
2024/01/23 13:27:06;;;;;;;;;;;7.40;99.90;;;;;;5036561;28;20000;-71
2024/01/23 13:29:32;;;;;;;;;;;7.50;99.90;;;;;;5034459;28;19983;-70
2024/01/23 13:31:59;;;;;;;;;;;7.50;99.90;;;;;;5036180;28;19995;-70
2024/01/23 13:34:26;;;;;;;;;;;7.50;99.90;;;;;;5036659;28;20694;-71
2024/01/23 13:36:52;;;;;;;;;;;7.50;99.90;;;;;;5037615;28;19991;-71
2024/01/23 13:39:19;;;;;;;;;;;7.50;99.90;;;;;;5039956;28;20006;-71
2024/01/23 13:41:46;;;;;;;;;;;7.50;99.90;;;;;;5037768;28;19979;-71
2024/01/23 13:44:14;;;;;;;;;;;7.50;99.90;;;;;;5042353;28;20019;-70
2024/01/23 13:46:41;;;;;;;;;;;7.50;99.90;;;;;;5041838;28;20006;-70
2024/01/23 13:49:08;;;;;;;;;;;7.50;99.90;;;;;;5040751;28;19987;-72
2024/01/23 13:51:34;;;;;;;;;;;7.50;99.90;;;;;;5042040;28;20504;-71
2024/01/23 13:54:03;;;;;;;;;;;7.50;99.90;;;;;;5043200;28;20018;-72
2024/01/23 13:56:30;;;;;;;;;;;7.50;99.90;;;;;;5039548;28;20004;-71
2024/01/23 13:58:57;;;;;;;;;;;7.50;99.90;;;;;;5043794;28;19983;-71
2024/01/23 14:01:26;;;;;;;;;;;7.50;99.90;;;;;;5043983;28;19991;-72
2024/01/23 14:03:52;;;;;;;;;;;7.50;99.90;;;;;;5039304;28;20114;-72
2024/01/23 14:06:20;;;;;;;;;;;7.50;99.90;;;;;;5040428;28;20468;-72
2024/01/23 14:08:47;;;;;;;;;;;7.50;99.90;;;;;;5037032;28;20372;-72
2024/01/23 14:11:13;;;;;;;;;;;7.50;99.90;;;;;;5041704;28;19987;-71
2024/01/23 14:13:40;;;;;;;;;;;7.50;99.90;;;;;;5035634;28;20998;-71
2024/01/23 14:16:07;;;;;;;;;;;7.50;99.90;;;;;;5040514;28;20004;-72
2024/01/23 14:18:35;;;;;;;;;;;7.50;99.90;;;;;;5037077;28;19998;-72
2024/01/23 14:21:03;;;;;;;;;;;7.50;99.90;;;;;;5042306;28;19984;-71
2024/01/23 14:23:30;;;;;;;;;;;7.50;99.90;;;;;;5043383;28;19980;-72
2024/01/23 14:25:56;;;;;;;;;;;7.50;99.90;;;;;;5039577;28;20361;-72
2024/01/23 14:28:23;;;;;;;;;;;7.50;99.90;;;;;;5041741;28;20457;-72
2024/01/23 14:30:51;;;;;;;;;;;7.50;99.90;;;;;;5037707;28;20002;-72